sensor_id;sensor_type;location;lat;lon;timestamp;temperature;humidity
16505;HTU21D;8365;51.030;4.696;2024-01-15T00:01:00;2.50;118.99
16505;HTU21D;8365;51.030;4.696;2024-01-15T00:03:30;2.40;118.99
16505;HTU21D;8365;51.030;4.696;2024-01-15T00:06:01;2.54;118.99
16505;HTU21D;8365;51.030;4.696;2024-01-15T00:08:31;2.55;118.99
16505;HTU21D;8365;51.030;4.696;2024-01-15T00:11:02;2.70;118.99
16505;HTU21D;8365;51.030;4.696;2024-01-15T00:13:32;2.67;118.99
16505;HTU21D;8365;51.030;4.696;2024-01-15T00:16:06;2.75;118.99
16505;HTU21D;8365;51.030;4.696;2024-01-15T00:18:37;2.81;118.99
16505;HTU21D;8365;51.030;4.696;2024-01-15T00:21:07;2.93;118.99
16505;HTU21D;8365;51.030;4.696;2024-01-15T00:23:42;2.88;118.99
16505;HTU21D;8365;51.030;4.696;2024-01-15T00:26:14;2.86;118.99
16505;HTU21D;8365;51.030;4.696;2024-01-15T00:28:44;2.60;118.99
16505;HTU21D;8365;51.030;4.696;2024-01-15T00:31:16;2.52;118.99
16505;HTU21D;8365;51.030;4.696;2024-01-15T00:33:47;2.46;118.99
16505;HTU21D;8365;51.030;4.696;2024-01-15T00:36:20;2.37;118.99
16505;HTU21D;8365;51.030;4.696;2024-01-15T00:38:50;2.23;118.99
16505;HTU21D;8365;51.030;4.696;2024-01-15T00:41:21;2.21;118.99
16505;HTU21D;8365;51.030;4.696;2024-01-15T00:43:52;2.19;118.99
16505;HTU21D;8365;51.030;4.696;2024-01-15T00:46:23;2.02;118.99
16505;HTU21D;8365;51.030;4.696;2024-01-15T00:48:53;1.97;118.99
16505;HTU21D;8365;51.030;4.696;2024-01-15T00:51:24;2.01;118.99
16505;HTU21D;8365;51.030;4.696;2024-01-15T00:53:54;1.94;118.99
16505;HTU21D;8365;51.030;4.696;2024-01-15T00:56:24;2.09;118.99
16505;HTU21D;8365;51.030;4.696;2024-01-15T00:58:55;2.06;118.99
16505;HTU21D;8365;51.030;4.696;2024-01-15T01:01:25;2.05;118.99
16505;HTU21D;8365;51.030;4.696;2024-01-15T01:03:56;1.96;118.99
16505;HTU21D;8365;51.030;4.696;2024-01-15T01:06:26;1.98;118.99
16505;HTU21D;8365;51.030;4.696;2024-01-15T01:08:57;1.93;118.99
16505;HTU21D;8365;51.030;4.696;2024-01-15T01:11:27;1.84;118.99
16505;HTU21D;8365;51.030;4.696;2024-01-15T01:13:59;1.79;118.99
16505;HTU21D;8365;51.030;4.696;2024-01-15T01:16:31;1.77;118.99
16505;HTU21D;8365;51.030;4.696;2024-01-15T01:19:01;1.78;118.99
16505;HTU21D;8365;51.030;4.696;2024-01-15T01:21:32;1.69;118.99
16505;HTU21D;8365;51.030;4.696;2024-01-15T01:24:03;1.64;118.99
16505;HTU21D;8365;51.030;4.696;2024-01-15T01:26:34;1.71;118.99
16505;HTU21D;8365;51.030;4.696;2024-01-15T01:29:04;1.78;118.99
16505;HTU21D;8365;51.030;4.696;2024-01-15T01:31:35;1.63;118.99
16505;HTU21D;8365;51.030;4.696;2024-01-15T01:34:05;1.69;118.99
16505;HTU21D;8365;51.030;4.696;2024-01-15T01:36:36;1.58;118.99
16505;HTU21D;8365;51.030;4.696;2024-01-15T01:39:06;1.66;118.99
16505;HTU21D;8365;51.030;4.696;2024-01-15T01:41:38;1.62;118.99
16505;HTU21D;8365;51.030;4.696;2024-01-15T01:44:09;1.58;118.99
16505;HTU21D;8365;51.030;4.696;2024-01-15T01:46:39;1.62;118.99
16505;HTU21D;8365;51.030;4.696;2024-01-15T01:49:10;1.54;118.99
16505;HTU21D;8365;51.030;4.696;2024-01-15T01:51:41;1.55;118.99
16505;HTU21D;8365;51.030;4.696;2024-01-15T01:54:12;1.71;118.99
16505;HTU21D;8365;51.030;4.696;2024-01-15T01:56:44;1.70;118.99
16505;HTU21D;8365;51.030;4.696;2024-01-15T01:59:15;1.67;118.99
16505;HTU21D;8365;51.030;4.696;2024-01-15T02:01:46;1.72;118.99
16505;HTU21D;8365;51.030;4.696;2024-01-15T02:04:19;1.72;118.99
16505;HTU21D;8365;51.030;4.696;2024-01-15T02:06:50;1.79;118.99
16505;HTU21D;8365;51.030;4.696;2024-01-15T02:09:21;1.75;118.99
16505;HTU21D;8365;51.030;4.696;2024-01-15T02:11:51;1.78;118.99
16505;HTU21D;8365;51.030;4.696;2024-01-15T02:14:24;1.78;118.99
16505;HTU21D;8365;51.030;4.696;2024-01-15T02:16:54;1.77;118.99
16505;HTU21D;8365;51.030;4.696;2024-01-15T02:19:25;1.76;118.99
16505;HTU21D;8365;51.030;4.696;2024-01-15T02:21:55;1.80;118.99
16505;HTU21D;8365;51.030;4.696;2024-01-15T02:24:26;1.73;118.99
16505;HTU21D;8365;51.030;4.696;2024-01-15T02:26:58;1.77;118.99
16505;HTU21D;8365;51.030;4.696;2024-01-15T02:29:29;1.87;118.99
16505;HTU21D;8365;51.030;4.696;2024-01-15T02:32:04;1.90;118.99
16505;HTU21D;8365;51.030;4.696;2024-01-15T02:34:35;1.85;118.99
16505;HTU21D;8365;51.030;4.696;2024-01-15T02:37:05;1.86;118.99
16505;HTU21D;8365;51.030;4.696;2024-01-15T02:39:35;1.90;118.99
16505;HTU21D;8365;51.030;4.696;2024-01-15T02:42:06;1.86;118.99
16505;HTU21D;8365;51.030;4.696;2024-01-15T02:44:36;1.80;118.99
16505;HTU21D;8365;51.030;4.696;2024-01-15T02:47:07;1.79;118.99
16505;HTU21D;8365;51.030;4.696;2024-01-15T02:49:37;1.83;118.99
16505;HTU21D;8365;51.030;4.696;2024-01-15T02:52:08;1.84;118.99
16505;HTU21D;8365;51.030;4.696;2024-01-15T02:54:39;1.93;118.99
16505;HTU21D;8365;51.030;4.696;2024-01-15T02:57:09;1.88;118.99
16505;HTU21D;8365;51.030;4.696;2024-01-15T02:59:39;1.94;118.99
16505;HTU21D;8365;51.030;4.696;2024-01-15T03:02:10;1.88;118.99
16505;HTU21D;8365;51.030;4.696;2024-01-15T03:04:44;1.90;118.99
16505;HTU21D;8365;51.030;4.696;2024-01-15T03:07:15;1.87;118.99
16505;HTU21D;8365;51.030;4.696;2024-01-15T03:09:45;1.94;118.99
16505;HTU21D;8365;51.030;4.696;2024-01-15T03:12:16;1.93;118.99
16505;HTU21D;8365;51.030;4.696;2024-01-15T03:14:46;1.96;118.99
16505;HTU21D;8365;51.030;4.696;2024-01-15T03:17:17;1.93;118.99
16505;HTU21D;8365;51.030;4.696;2024-01-15T03:19:47;1.99;118.99
16505;HTU21D;8365;51.030;4.696;2024-01-15T03:22:19;2.01;118.99
16505;HTU21D;8365;51.030;4.696;2024-01-15T03:24:50;2.01;118.99
16505;HTU21D;8365;51.030;4.696;2024-01-15T03:27:20;2.11;118.99
16505;HTU21D;8365;51.030;4.696;2024-01-15T03:29:51;2.10;118.99
16505;HTU21D;8365;51.030;4.696;2024-01-15T03:32:22;2.09;118.99
16505;HTU21D;8365;51.030;4.696;2024-01-15T03:34:52;2.12;118.99
16505;HTU21D;8365;51.030;4.696;2024-01-15T03:37:22;2.13;118.99
16505;HTU21D;8365;51.030;4.696;2024-01-15T03:39:53;2.07;118.99
16505;HTU21D;8365;51.030;4.696;2024-01-15T03:42:23;2.09;118.99
16505;HTU21D;8365;51.030;4.696;2024-01-15T03:44:54;2.13;118.99
16505;HTU21D;8365;51.030;4.696;2024-01-15T03:47:25;2.09;118.99
16505;HTU21D;8365;51.030;4.696;2024-01-15T03:49:56;2.12;118.99
16505;HTU21D;8365;51.030;4.696;2024-01-15T03:52:26;2.24;118.99
16505;HTU21D;8365;51.030;4.696;2024-01-15T03:54:57;2.25;118.99
16505;HTU21D;8365;51.030;4.696;2024-01-15T03:57:27;2.23;118.99
16505;HTU21D;8365;51.030;4.696;2024-01-15T03:59:58;2.31;118.99
16505;HTU21D;8365;51.030;4.696;2024-01-15T04:02:31;2.44;118.99
16505;HTU21D;8365;51.030;4.696;2024-01-15T04:05:01;2.43;118.99
16505;HTU21D;8365;51.030;4.696;2024-01-15T04:07:32;2.37;118.99
16505;HTU21D;8365;51.030;4.696;2024-01-15T04:10:03;2.32;118.99
16505;HTU21D;8365;51.030;4.696;2024-01-15T04:12:33;2.45;118.99
16505;HTU21D;8365;51.030;4.696;2024-01-15T04:15:04;2.38;118.99
16505;HTU21D;8365;51.030;4.696;2024-01-15T04:17:35;2.36;118.99
16505;HTU21D;8365;51.030;4.696;2024-01-15T04:20:05;2.40;118.99
16505;HTU21D;8365;51.030;4.696;2024-01-15T04:22:39;2.32;118.99
16505;HTU21D;8365;51.030;4.696;2024-01-15T04:25:09;2.35;118.99
16505;HTU21D;8365;51.030;4.696;2024-01-15T04:27:40;2.39;118.99
16505;HTU21D;8365;51.030;4.696;2024-01-15T04:30:10;2.29;118.99
16505;HTU21D;8365;51.030;4.696;2024-01-15T04:32:41;2.37;118.99
16505;HTU21D;8365;51.030;4.696;2024-01-15T04:35:12;2.30;118.99
16505;HTU21D;8365;51.030;4.696;2024-01-15T04:37:43;2.23;118.99
16505;HTU21D;8365;51.030;4.696;2024-01-15T04:40:13;2.21;118.99
16505;HTU21D;8365;51.030;4.696;2024-01-15T04:42:46;2.13;118.99
16505;HTU21D;8365;51.030;4.696;2024-01-15T04:45:17;2.16;118.99
16505;HTU21D;8365;51.030;4.696;2024-01-15T04:47:49;1.97;118.99
16505;HTU21D;8365;51.030;4.696;2024-01-15T04:50:19;1.94;118.99
16505;HTU21D;8365;51.030;4.696;2024-01-15T04:52:50;1.91;118.99
16505;HTU21D;8365;51.030;4.696;2024-01-15T04:55:21;1.85;118.99
16505;HTU21D;8365;51.030;4.696;2024-01-15T04:57:51;1.80;118.99
16505;HTU21D;8365;51.030;4.696;2024-01-15T05:00:21;1.80;118.99
16505;HTU21D;8365;51.030;4.696;2024-01-15T05:02:52;1.75;118.99
16505;HTU21D;8365;51.030;4.696;2024-01-15T05:05:23;1.70;118.99
16505;HTU21D;8365;51.030;4.696;2024-01-15T05:07:53;1.78;118.99
16505;HTU21D;8365;51.030;4.696;2024-01-15T05:10:24;1.75;118.99
16505;HTU21D;8365;51.030;4.696;2024-01-15T05:12:56;1.68;118.99
16505;HTU21D;8365;51.030;4.696;2024-01-15T05:15:27;1.69;118.99
16505;HTU21D;8365;51.030;4.696;2024-01-15T05:17:57;1.65;118.99
16505;HTU21D;8365;51.030;4.696;2024-01-15T05:20:30;1.72;118.99
16505;HTU21D;8365;51.030;4.696;2024-01-15T05:23:01;1.67;118.99
16505;HTU21D;8365;51.030;4.696;2024-01-15T05:25:31;1.66;118.99
16505;HTU21D;8365;51.030;4.696;2024-01-15T05:28:02;1.76;118.99
16505;HTU21D;8365;51.030;4.696;2024-01-15T05:30:32;1.75;118.99
16505;HTU21D;8365;51.030;4.696;2024-01-15T05:33:03;1.68;118.99
16505;HTU21D;8365;51.030;4.696;2024-01-15T05:35:34;1.65;118.99
16505;HTU21D;8365;51.030;4.696;2024-01-15T05:38:04;1.66;118.99
16505;HTU21D;8365;51.030;4.696;2024-01-15T05:40:35;1.62;118.99
16505;HTU21D;8365;51.030;4.696;2024-01-15T05:43:05;1.56;118.99
16505;HTU21D;8365;51.030;4.696;2024-01-15T05:45:42;1.55;118.99
16505;HTU21D;8365;51.030;4.696;2024-01-15T05:48:13;1.55;118.99
16505;HTU21D;8365;51.030;4.696;2024-01-15T05:50:43;1.48;118.99
16505;HTU21D;8365;51.030;4.696;2024-01-15T05:53:13;1.46;118.99
16505;HTU21D;8365;51.030;4.696;2024-01-15T05:55:44;1.43;118.99
16505;HTU21D;8365;51.030;4.696;2024-01-15T05:58:15;1.39;118.99
16505;HTU21D;8365;51.030;4.696;2024-01-15T06:00:45;1.46;118.99
16505;HTU21D;8365;51.030;4.696;2024-01-15T06:03:16;1.53;118.99
16505;HTU21D;8365;51.030;4.696;2024-01-15T06:05:47;1.55;118.99
16505;HTU21D;8365;51.030;4.696;2024-01-15T06:08:19;1.53;118.99
16505;HTU21D;8365;51.030;4.696;2024-01-15T06:10:53;1.62;118.99
16505;HTU21D;8365;51.030;4.696;2024-01-15T06:13:24;1.62;118.99
16505;HTU21D;8365;51.030;4.696;2024-01-15T06:15:55;1.49;118.99
16505;HTU21D;8365;51.030;4.696;2024-01-15T06:18:25;1.47;118.99
16505;HTU21D;8365;51.030;4.696;2024-01-15T06:20:56;1.49;118.99
16505;HTU21D;8365;51.030;4.696;2024-01-15T06:23:28;1.49;118.99
16505;HTU21D;8365;51.030;4.696;2024-01-15T06:25:59;1.51;118.99
16505;HTU21D;8365;51.030;4.696;2024-01-15T06:28:29;1.51;118.99
16505;HTU21D;8365;51.030;4.696;2024-01-15T06:31:00;1.65;118.99
16505;HTU21D;8365;51.030;4.696;2024-01-15T06:33:30;1.61;118.99
16505;HTU21D;8365;51.030;4.696;2024-01-15T06:36:01;1.63;118.99
16505;HTU21D;8365;51.030;4.696;2024-01-15T06:38:31;1.64;118.99
16505;HTU21D;8365;51.030;4.696;2024-01-15T06:41:02;1.61;118.99
16505;HTU21D;8365;51.030;4.696;2024-01-15T06:43:32;1.63;118.99
16505;HTU21D;8365;51.030;4.696;2024-01-15T06:46:03;1.63;118.99
16505;HTU21D;8365;51.030;4.696;2024-01-15T06:48:33;1.65;118.99
16505;HTU21D;8365;51.030;4.696;2024-01-15T06:51:04;1.66;118.99
16505;HTU21D;8365;51.030;4.696;2024-01-15T06:53:34;1.63;118.99
16505;HTU21D;8365;51.030;4.696;2024-01-15T06:56:05;1.60;118.99
16505;HTU21D;8365;51.030;4.696;2024-01-15T06:58:38;1.73;118.99
16505;HTU21D;8365;51.030;4.696;2024-01-15T07:01:08;1.72;118.99
16505;HTU21D;8365;51.030;4.696;2024-01-15T07:03:39;1.64;118.99
16505;HTU21D;8365;51.030;4.696;2024-01-15T07:06:10;1.63;118.99
16505;HTU21D;8365;51.030;4.696;2024-01-15T07:08:42;1.64;118.99
16505;HTU21D;8365;51.030;4.696;2024-01-15T07:11:15;1.69;118.99
16505;HTU21D;8365;51.030;4.696;2024-01-15T07:13:46;1.71;118.99
16505;HTU21D;8365;51.030;4.696;2024-01-15T07:16:16;1.66;118.99
16505;HTU21D;8365;51.030;4.696;2024-01-15T07:18:47;1.70;118.99
16505;HTU21D;8365;51.030;4.696;2024-01-15T07:21:17;1.66;118.99
16505;HTU21D;8365;51.030;4.696;2024-01-15T07:23:47;1.62;118.99
16505;HTU21D;8365;51.030;4.696;2024-01-15T07:26:18;1.56;118.99
16505;HTU21D;8365;51.030;4.696;2024-01-15T07:28:48;1.57;118.99
16505;HTU21D;8365;51.030;4.696;2024-01-15T07:31:19;1.56;118.99
16505;HTU21D;8365;51.030;4.696;2024-01-15T07:33:49;1.56;118.99
16505;HTU21D;8365;51.030;4.696;2024-01-15T07:36:20;1.75;118.99
16505;HTU21D;8365;51.030;4.696;2024-01-15T07:38:50;1.80;118.99
16505;HTU21D;8365;51.030;4.696;2024-01-15T07:41:21;1.78;118.99
16505;HTU21D;8365;51.030;4.696;2024-01-15T07:43:52;1.87;118.99
16505;HTU21D;8365;51.030;4.696;2024-01-15T07:46:24;1.92;118.99
16505;HTU21D;8365;51.030;4.696;2024-01-15T07:48:55;2.07;118.99
16505;HTU21D;8365;51.030;4.696;2024-01-15T07:51:28;1.99;118.99
16505;HTU21D;8365;51.030;4.696;2024-01-15T07:53:59;2.00;118.99
16505;HTU21D;8365;51.030;4.696;2024-01-15T07:56:30;2.01;118.99
16505;HTU21D;8365;51.030;4.696;2024-01-15T07:59:01;2.16;118.99
16505;HTU21D;8365;51.030;4.696;2024-01-15T08:01:31;2.13;118.99
16505;HTU21D;8365;51.030;4.696;2024-01-15T08:04:01;2.10;118.99
16505;HTU21D;8365;51.030;4.696;2024-01-15T08:06:32;2.16;118.99
16505;HTU21D;8365;51.030;4.696;2024-01-15T08:09:02;2.31;118.99
16505;HTU21D;8365;51.030;4.696;2024-01-15T08:11:35;2.35;118.99
16505;HTU21D;8365;51.030;4.696;2024-01-15T08:14:05;2.46;118.99
16505;HTU21D;8365;51.030;4.696;2024-01-15T08:16:39;2.35;118.99
16505;HTU21D;8365;51.030;4.696;2024-01-15T08:19:09;2.29;118.99
16505;HTU21D;8365;51.030;4.696;2024-01-15T08:21:39;2.27;118.99
16505;HTU21D;8365;51.030;4.696;2024-01-15T08:24:10;2.34;118.99
16505;HTU21D;8365;51.030;4.696;2024-01-15T08:26:40;2.23;118.99
16505;HTU21D;8365;51.030;4.696;2024-01-15T08:29:11;2.09;118.99
16505;HTU21D;8365;51.030;4.696;2024-01-15T08:31:41;2.05;118.99
16505;HTU21D;8365;51.030;4.696;2024-01-15T08:34:12;2.13;118.99
16505;HTU21D;8365;51.030;4.696;2024-01-15T08:36:42;2.19;118.99
16505;HTU21D;8365;51.030;4.696;2024-01-15T08:39:13;2.12;118.99
16505;HTU21D;8365;51.030;4.696;2024-01-15T08:41:43;2.09;118.99
16505;HTU21D;8365;51.030;4.696;2024-01-15T08:44:14;1.95;118.99
16505;HTU21D;8365;51.030;4.696;2024-01-15T08:46:44;1.98;118.99
16505;HTU21D;8365;51.030;4.696;2024-01-15T08:49:15;1.96;118.99
16505;HTU21D;8365;51.030;4.696;2024-01-15T08:51:45;1.96;118.99
16505;HTU21D;8365;51.030;4.696;2024-01-15T08:54:16;1.97;118.99
16505;HTU21D;8365;51.030;4.696;2024-01-15T08:56:46;1.99;118.99
16505;HTU21D;8365;51.030;4.696;2024-01-15T08:59:16;1.96;118.99
16505;HTU21D;8365;51.030;4.696;2024-01-15T09:01:47;2.06;118.99
16505;HTU21D;8365;51.030;4.696;2024-01-15T09:04:18;2.12;118.99
16505;HTU21D;8365;51.030;4.696;2024-01-15T09:06:49;2.10;118.99
16505;HTU21D;8365;51.030;4.696;2024-01-15T09:09:20;2.26;118.99
16505;HTU21D;8365;51.030;4.696;2024-01-15T09:11:51;2.24;118.99
16505;HTU21D;8365;51.030;4.696;2024-01-15T09:14:22;2.32;118.99
16505;HTU21D;8365;51.030;4.696;2024-01-15T09:16:54;2.37;118.99
16505;HTU21D;8365;51.030;4.696;2024-01-15T09:19:25;2.44;118.99
16505;HTU21D;8365;51.030;4.696;2024-01-15T09:21:55;2.55;118.99
16505;HTU21D;8365;51.030;4.696;2024-01-15T09:24:25;2.59;118.99
16505;HTU21D;8365;51.030;4.696;2024-01-15T09:26:56;2.53;118.99
16505;HTU21D;8365;51.030;4.696;2024-01-15T09:29:29;2.65;118.99
16505;HTU21D;8365;51.030;4.696;2024-01-15T09:32:00;2.64;118.99
16505;HTU21D;8365;51.030;4.696;2024-01-15T09:34:33;2.70;118.99
16505;HTU21D;8365;51.030;4.696;2024-01-15T09:37:04;2.67;118.99
16505;HTU21D;8365;51.030;4.696;2024-01-15T09:39:35;2.64;118.99
16505;HTU21D;8365;51.030;4.696;2024-01-15T09:42:08;2.70;118.99
16505;HTU21D;8365;51.030;4.696;2024-01-15T09:44:39;2.65;118.99
16505;HTU21D;8365;51.030;4.696;2024-01-15T09:47:09;2.97;118.99
16505;HTU21D;8365;51.030;4.696;2024-01-15T09:49:47;3.35;118.99
16505;HTU21D;8365;51.030;4.696;2024-01-15T09:52:18;4.12;118.99
16505;HTU21D;8365;51.030;4.696;2024-01-15T09:54:49;4.12;118.99
16505;HTU21D;8365;51.030;4.696;2024-01-15T09:57:20;4.24;118.99
16505;HTU21D;8365;51.030;4.696;2024-01-15T09:59:54;4.77;118.99
16505;HTU21D;8365;51.030;4.696;2024-01-15T10:02:27;4.97;118.99
16505;HTU21D;8365;51.030;4.696;2024-01-15T10:04:57;5.26;118.99
16505;HTU21D;8365;51.030;4.696;2024-01-15T10:07:29;5.39;118.99
16505;HTU21D;8365;51.030;4.696;2024-01-15T10:09:59;5.95;118.99
16505;HTU21D;8365;51.030;4.696;2024-01-15T10:12:30;6.13;118.99
16505;HTU21D;8365;51.030;4.696;2024-01-15T10:15:01;5.95;118.99
16505;HTU21D;8365;51.030;4.696;2024-01-15T10:17:36;6.17;118.99
16505;HTU21D;8365;51.030;4.696;2024-01-15T10:20:11;6.16;118.80
16505;HTU21D;8365;51.030;4.696;2024-01-15T10:22:42;6.52;118.99
16505;HTU21D;8365;51.030;4.696;2024-01-15T10:25:14;6.22;118.82
16505;HTU21D;8365;51.030;4.696;2024-01-15T10:27:45;6.05;118.16
16505;HTU21D;8365;51.030;4.696;2024-01-15T10:30:29;6.61;118.15
16505;HTU21D;8365;51.030;4.696;2024-01-15T10:33:01;6.44;117.21
16505;HTU21D;8365;51.030;4.696;2024-01-15T10:35:33;6.40;117.08
16505;HTU21D;8365;51.030;4.696;2024-01-15T10:38:05;6.74;114.54
16505;HTU21D;8365;51.030;4.696;2024-01-15T10:40:38;6.90;114.08
16505;HTU21D;8365;51.030;4.696;2024-01-15T10:43:09;6.59;113.52
16505;HTU21D;8365;51.030;4.696;2024-01-15T10:45:39;6.35;114.53
16505;HTU21D;8365;51.030;4.696;2024-01-15T10:48:10;6.35;114.17
16505;HTU21D;8365;51.030;4.696;2024-01-15T10:50:41;6.85;110.85
16505;HTU21D;8365;51.030;4.696;2024-01-15T10:53:13;7.31;110.75
16505;HTU21D;8365;51.030;4.696;2024-01-15T10:55:46;6.73;111.31
16505;HTU21D;8365;51.030;4.696;2024-01-15T10:58:20;7.32;109.18
16505;HTU21D;8365;51.030;4.696;2024-01-15T11:00:53;6.53;114.74
16505;HTU21D;8365;51.030;4.696;2024-01-15T11:03:24;6.39;116.59
16505;HTU21D;8365;51.030;4.696;2024-01-15T11:05:55;5.70;116.99
16505;HTU21D;8365;51.030;4.696;2024-01-15T11:08:25;5.12;118.99
16505;HTU21D;8365;51.030;4.696;2024-01-15T11:10:56;4.90;118.99
16505;HTU21D;8365;51.030;4.696;2024-01-15T11:16:01;4.72;118.99
16505;HTU21D;8365;51.030;4.696;2024-01-15T11:18:37;4.81;118.99
16505;HTU21D;8365;51.030;4.696;2024-01-15T11:23:51;4.80;118.99
16505;HTU21D;8365;51.030;4.696;2024-01-15T11:29:06;4.62;118.99
16505;HTU21D;8365;51.030;4.696;2024-01-15T11:34:12;5.22;118.99
16505;HTU21D;8365;51.030;4.696;2024-01-15T11:42:03;5.25;118.99
16505;HTU21D;8365;51.030;4.696;2024-01-15T11:44:33;5.64;118.99
16505;HTU21D;8365;51.030;4.696;2024-01-15T11:47:11;6.51;109.63
16505;HTU21D;8365;51.030;4.696;2024-01-15T11:50:00;7.52;108.94
16505;HTU21D;8365;51.030;4.696;2024-01-15T11:52:34;7.18;104.40
16505;HTU21D;8365;51.030;4.696;2024-01-15T11:55:16;6.38;110.23
16505;HTU21D;8365;51.030;4.696;2024-01-15T11:57:53;5.16;118.99
16505;HTU21D;8365;51.030;4.696;2024-01-15T12:00:26;4.64;118.99
16505;HTU21D;8365;51.030;4.696;2024-01-15T12:02:59;4.41;118.99
16505;HTU21D;8365;51.030;4.696;2024-01-15T12:05:32;4.21;118.99
16505;HTU21D;8365;51.030;4.696;2024-01-15T12:08:02;4.00;118.99
16505;HTU21D;8365;51.030;4.696;2024-01-15T12:10:41;3.90;118.99
16505;HTU21D;8365;51.030;4.696;2024-01-15T12:13:15;3.59;118.99
16505;HTU21D;8365;51.030;4.696;2024-01-15T12:15:47;3.33;118.99
16505;HTU21D;8365;51.030;4.696;2024-01-15T12:18:18;2.65;118.99
16505;HTU21D;8365;51.030;4.696;2024-01-15T12:20:49;2.46;118.99
16505;HTU21D;8365;51.030;4.696;2024-01-15T12:23:20;2.68;118.99
16505;HTU21D;8365;51.030;4.696;2024-01-15T12:25:50;3.11;118.99
16505;HTU21D;8365;51.030;4.696;2024-01-15T12:28:21;3.01;118.99
16505;HTU21D;8365;51.030;4.696;2024-01-15T12:30:55;3.13;118.99
16505;HTU21D;8365;51.030;4.696;2024-01-15T12:33:25;3.34;118.99
16505;HTU21D;8365;51.030;4.696;2024-01-15T12:35:59;3.50;118.99
16505;HTU21D;8365;51.030;4.696;2024-01-15T12:38:29;3.43;118.99
16505;HTU21D;8365;51.030;4.696;2024-01-15T12:41:00;3.41;118.99
16505;HTU21D;8365;51.030;4.696;2024-01-15T12:43:31;3.52;118.99
16505;HTU21D;8365;51.030;4.696;2024-01-15T12:46:01;3.32;118.99
16505;HTU21D;8365;51.030;4.696;2024-01-15T12:48:32;2.98;118.99
16505;HTU21D;8365;51.030;4.696;2024-01-15T12:51:06;2.46;118.99
16505;HTU21D;8365;51.030;4.696;2024-01-15T12:53:36;1.91;118.99
16505;HTU21D;8365;51.030;4.696;2024-01-15T12:56:07;2.05;118.99
16505;HTU21D;8365;51.030;4.696;2024-01-15T12:58:38;1.96;118.99
16505;HTU21D;8365;51.030;4.696;2024-01-15T13:01:08;2.08;118.99
16505;HTU21D;8365;51.030;4.696;2024-01-15T13:03:39;1.95;118.99
16505;HTU21D;8365;51.030;4.696;2024-01-15T13:06:09;1.96;118.99
16505;HTU21D;8365;51.030;4.696;2024-01-15T13:08:40;1.98;118.99
16505;HTU21D;8365;51.030;4.696;2024-01-15T13:11:10;2.08;118.99
16505;HTU21D;8365;51.030;4.696;2024-01-15T13:13:41;2.01;118.99
16505;HTU21D;8365;51.030;4.696;2024-01-15T13:16:12;2.09;118.99
16505;HTU21D;8365;51.030;4.696;2024-01-15T13:18:42;2.14;118.99
16505;HTU21D;8365;51.030;4.696;2024-01-15T13:21:13;2.07;118.99
16505;HTU21D;8365;51.030;4.696;2024-01-15T13:23:45;2.08;118.99
16505;HTU21D;8365;51.030;4.696;2024-01-15T13:26:16;2.07;118.99
16505;HTU21D;8365;51.030;4.696;2024-01-15T13:28:49;2.15;118.99
16505;HTU21D;8365;51.030;4.696;2024-01-15T13:31:19;2.02;118.99
16505;HTU21D;8365;51.030;4.696;2024-01-15T13:33:53;2.03;118.99
16505;HTU21D;8365;51.030;4.696;2024-01-15T13:36:27;1.98;118.99
16505;HTU21D;8365;51.030;4.696;2024-01-15T13:38:57;2.00;118.99
16505;HTU21D;8365;51.030;4.696;2024-01-15T13:41:29;1.98;118.99
16505;HTU21D;8365;51.030;4.696;2024-01-15T13:43:59;1.97;118.99
16505;HTU21D;8365;51.030;4.696;2024-01-15T13:46:30;1.93;118.99
16505;HTU21D;8365;51.030;4.696;2024-01-15T13:49:00;1.84;118.99
16505;HTU21D;8365;51.030;4.696;2024-01-15T13:51:32;1.76;118.99
16505;HTU21D;8365;51.030;4.696;2024-01-15T13:54:03;1.81;118.99
16505;HTU21D;8365;51.030;4.696;2024-01-15T13:56:35;1.85;118.99
16505;HTU21D;8365;51.030;4.696;2024-01-15T13:59:05;1.92;118.99
16505;HTU21D;8365;51.030;4.696;2024-01-15T14:01:36;1.92;118.99
16505;HTU21D;8365;51.030;4.696;2024-01-15T14:04:06;1.99;118.99
16505;HTU21D;8365;51.030;4.696;2024-01-15T14:06:37;2.07;118.99
16505;HTU21D;8365;51.030;4.696;2024-01-15T14:09:07;2.21;118.99
16505;HTU21D;8365;51.030;4.696;2024-01-15T14:11:40;2.34;118.99
16505;HTU21D;8365;51.030;4.696;2024-01-15T14:14:11;2.09;118.99
16505;HTU21D;8365;51.030;4.696;2024-01-15T14:16:42;1.93;118.99
16505;HTU21D;8365;51.030;4.696;2024-01-15T14:19:12;1.81;118.99
16505;HTU21D;8365;51.030;4.696;2024-01-15T14:21:43;1.77;118.99
16505;HTU21D;8365;51.030;4.696;2024-01-15T14:24:16;1.92;118.99
16505;HTU21D;8365;51.030;4.696;2024-01-15T14:26:47;1.98;118.99
16505;HTU21D;8365;51.030;4.696;2024-01-15T14:29:18;1.98;118.99
16505;HTU21D;8365;51.030;4.696;2024-01-15T14:31:52;2.07;118.99
16505;HTU21D;8365;51.030;4.696;2024-01-15T14:34:23;2.10;118.99
16505;HTU21D;8365;51.030;4.696;2024-01-15T14:36:53;2.17;118.99
16505;HTU21D;8365;51.030;4.696;2024-01-15T14:39:25;2.17;118.99
16505;HTU21D;8365;51.030;4.696;2024-01-15T14:41:58;2.38;118.99
16505;HTU21D;8365;51.030;4.696;2024-01-15T14:44:28;2.42;118.99
16505;HTU21D;8365;51.030;4.696;2024-01-15T14:46:59;2.54;118.99
16505;HTU21D;8365;51.030;4.696;2024-01-15T14:49:29;2.44;118.99
16505;HTU21D;8365;51.030;4.696;2024-01-15T14:52:00;2.57;118.99
16505;HTU21D;8365;51.030;4.696;2024-01-15T14:54:30;2.50;118.99
16505;HTU21D;8365;51.030;4.696;2024-01-15T14:57:01;2.67;118.99
16505;HTU21D;8365;51.030;4.696;2024-01-15T14:59:31;2.83;118.99
16505;HTU21D;8365;51.030;4.696;2024-01-15T15:02:02;2.75;118.99
16505;HTU21D;8365;51.030;4.696;2024-01-15T15:04:34;2.96;118.99
16505;HTU21D;8365;51.030;4.696;2024-01-15T15:07:05;2.79;118.99
16505;HTU21D;8365;51.030;4.696;2024-01-15T15:09:36;2.55;118.99
16505;HTU21D;8365;51.030;4.696;2024-01-15T15:12:08;2.26;118.99
16505;HTU21D;8365;51.030;4.696;2024-01-15T15:14:39;2.17;118.99
16505;HTU21D;8365;51.030;4.696;2024-01-15T15:17:09;2.22;118.99
16505;HTU21D;8365;51.030;4.696;2024-01-15T15:19:40;2.06;118.99
16505;HTU21D;8365;51.030;4.696;2024-01-15T15:22:11;2.03;118.99
16505;HTU21D;8365;51.030;4.696;2024-01-15T15:24:41;2.28;118.99
16505;HTU21D;8365;51.030;4.696;2024-01-15T15:27:12;2.35;118.99
16505;HTU21D;8365;51.030;4.696;2024-01-15T15:29:42;2.30;118.99
16505;HTU21D;8365;51.030;4.696;2024-01-15T15:32:13;2.43;118.99
16505;HTU21D;8365;51.030;4.696;2024-01-15T15:34:46;2.55;118.99
16505;HTU21D;8365;51.030;4.696;2024-01-15T15:37:16;2.84;118.99
16505;HTU21D;8365;51.030;4.696;2024-01-15T15:39:46;2.73;118.99
16505;HTU21D;8365;51.030;4.696;2024-01-15T15:42:17;2.62;118.99
16505;HTU21D;8365;51.030;4.696;2024-01-15T15:44:48;2.62;118.99
16505;HTU21D;8365;51.030;4.696;2024-01-15T15:47:19;2.60;118.99
16505;HTU21D;8365;51.030;4.696;2024-01-15T15:49:52;2.45;118.99
16505;HTU21D;8365;51.030;4.696;2024-01-15T15:52:22;2.50;118.99
16505;HTU21D;8365;51.030;4.696;2024-01-15T15:54:53;2.62;118.99
16505;HTU21D;8365;51.030;4.696;2024-01-15T15:57:25;2.64;118.99
16505;HTU21D;8365;51.030;4.696;2024-01-15T15:59:57;2.57;118.99
16505;HTU21D;8365;51.030;4.696;2024-01-15T16:02:28;2.68;118.99
16505;HTU21D;8365;51.030;4.696;2024-01-15T16:04:58;2.94;118.99
16505;HTU21D;8365;51.030;4.696;2024-01-15T16:07:29;2.99;118.99
16505;HTU21D;8365;51.030;4.696;2024-01-15T16:09:59;3.12;118.99